Time;durP1;ratioP1;P1;durP2;ratioP2;P2;SDS_P1;SDS_P2;PMS_P1;PMS_P2;Temp;Humidity;BMP_temperature;BMP_pressure;BME280_temperature;BME280_humidity;BME280_pressure;Samples;Min_cycle;Max_cycle;Signal;HPM_P1;HPM_P2
2019/05/10 00:13:36;;;;;;;1.5;0.8;;;;;;;;;;;;;
2019/05/10 00:15:58;;;;;;;1.5;0.8;;;;;;;;;;;;;
2019/05/10 00:18:23;;;;;;;1.6;0.8;;;;;;;;;;;;;
2019/05/10 00:20:48;;;;;;;1.2;0.8;;;;;;;;;;;;;
2019/05/10 00:23:13;;;;;;;1.9;0.8;;;;;;;;;;;;;
2019/05/10 00:25:38;;;;;;;2.2;0.8;;;;;;;;;;;;;
2019/05/10 00:28:03;;;;;;;1.9;0.9;;;;;;;;;;;;;
2019/05/10 00:30:29;;;;;;;3.2;1;;;;;;;;;;;;;
2019/05/10 00:32:57;;;;;;;2;1.1;;;;;;;;;;;;;
2019/05/10 00:35:19;;;;;;;2.4;0.9;;;;;;;;;;;;;
2019/05/10 00:37:44;;;;;;;2.8;0.8;;;;;;;;;;;;;
2019/05/10 00:40:09;;;;;;;1.6;0.7;;;;;;;;;;;;;
2019/05/10 00:42:34;;;;;;;1.6;0.9;;;;;;;;;;;;;
2019/05/10 00:45:00;;;;;;;1;0.7;;;;;;;;;;;;;
2019/05/10 00:47:25;;;;;;;1.7;0.7;;;;;;;;;;;;;
2019/05/10 00:49:50;;;;;;;1;0.6;;;;;;;;;;;;;
2019/05/10 00:52:15;;;;;;;1.3;0.8;;;;;;;;;;;;;
2019/05/10 00:54:41;;;;;;;2.6;0.9;;;;;;;;;;;;;
2019/05/10 00:57:06;;;;;;;1.1;0.6;;;;;;;;;;;;;
2019/05/10 00:59:31;;;;;;;0.7;0.7;;;;;;;;;;;;;
2019/05/10 01:01:56;;;;;;;0.9;0.7;;;;;;;;;;;;;
2019/05/10 01:04:21;;;;;;;3.4;0.6;;;;;;;;;;;;;
2019/05/10 01:06:50;;;;;;;0.8;0.5;;;;;;;;;;;;;
2019/05/10 01:09:13;;;;;;;1;0.8;;;;;;;;;;;;;
2019/05/10 01:11:37;;;;;;;1.1;0.7;;;;;;;;;;;;;
2019/05/10 01:14:02;;;;;;;1.1;0.7;;;;;;;;;;;;;
2019/05/10 01:16:27;;;;;;;0.7;0.7;;;;;;;;;;;;;
2019/05/10 01:18:52;;;;;;;2;0.6;;;;;;;;;;;;;
2019/05/10 01:21:17;;;;;;;0.8;0.5;;;;;;;;;;;;;
2019/05/10 01:23:42;;;;;;;1.9;0.7;;;;;;;;;;;;;
2019/05/10 01:26:08;;;;;;;1.5;0.6;;;;;;;;;;;;;
2019/05/10 01:28:33;;;;;;;1;0.6;;;;;;;;;;;;;
2019/05/10 01:30:59;;;;;;;1;0.6;;;;;;;;;;;;;
2019/05/10 01:33:25;;;;;;;2.5;0.7;;;;;;;;;;;;;
2019/05/10 01:35:50;;;;;;;1.3;0.8;;;;;;;;;;;;;
2019/05/10 01:38:15;;;;;;;0.8;0.6;;;;;;;;;;;;;
2019/05/10 01:40:40;;;;;;;2.5;0.7;;;;;;;;;;;;;
2019/05/10 01:43:07;;;;;;;3.6;0.9;;;;;;;;;;;;;
2019/05/10 01:45:31;;;;;;;2;0.7;;;;;;;;;;;;;
2019/05/10 01:47:55;;;;;;;1.4;0.9;;;;;;;;;;;;;
2019/05/10 01:50:21;;;;;;;1.6;0.8;;;;;;;;;;;;;
2019/05/10 01:52:46;;;;;;;1.3;0.7;;;;;;;;;;;;;
2019/05/10 01:55:11;;;;;;;1.7;0.9;;;;;;;;;;;;;
2019/05/10 01:57:36;;;;;;;1.4;0.9;;;;;;;;;;;;;
2019/05/10 02:00:01;;;;;;;2.5;1.2;;;;;;;;;;;;;
2019/05/10 02:02:26;;;;;;;1.9;1.1;;;;;;;;;;;;;
2019/05/10 02:04:51;;;;;;;1.3;1.1;;;;;;;;;;;;;
2019/05/10 02:07:18;;;;;;;2.9;1;;;;;;;;;;;;;
2019/05/10 02:09:43;;;;;;;1;0.7;;;;;;;;;;;;;
2019/05/10 02:12:10;;;;;;;1.1;0.7;;;;;;;;;;;;;
2019/05/10 02:14:35;;;;;;;0.8;0.7;;;;;;;;;;;;;
2019/05/10 02:17:00;;;;;;;1.1;0.7;;;;;;;;;;;;;
2019/05/10 02:19:26;;;;;;;1.6;0.9;;;;;;;;;;;;;
2019/05/10 02:21:51;;;;;;;1.8;0.8;;;;;;;;;;;;;
2019/05/10 02:24:16;;;;;;;1.7;0.8;;;;;;;;;;;;;
2019/05/10 02:26:41;;;;;;;1.9;1;;;;;;;;;;;;;
2019/05/10 02:29:06;;;;;;;1.1;0.8;;;;;;;;;;;;;
2019/05/10 02:31:31;;;;;;;1.3;0.7;;;;;;;;;;;;;
2019/05/10 02:33:57;;;;;;;2;0.8;;;;;;;;;;;;;
2019/05/10 02:36:22;;;;;;;1;0.6;;;;;;;;;;;;;
2019/05/10 02:38:48;;;;;;;2.5;0.8;;;;;;;;;;;;;
2019/05/10 02:41:13;;;;;;;0.8;0.6;;;;;;;;;;;;;
2019/05/10 02:43:38;;;;;;;1.4;0.7;;;;;;;;;;;;;
2019/05/10 02:46:03;;;;;;;1;0.6;;;;;;;;;;;;;
2019/05/10 02:48:28;;;;;;;2;0.6;;;;;;;;;;;;;
2019/05/10 02:50:53;;;;;;;1.4;0.6;;;;;;;;;;;;;
2019/05/10 02:53:18;;;;;;;1.7;0.9;;;;;;;;;;;;;
2019/05/10 02:55:44;;;;;;;1.2;0.7;;;;;;;;;;;;;
2019/05/10 02:58:09;;;;;;;1.4;0.7;;;;;;;;;;;;;
2019/05/10 03:00:35;;;;;;;0.9;0.7;;;;;;;;;;;;;
2019/05/10 03:02:59;;;;;;;1.3;0.8;;;;;;;;;;;;;
2019/05/10 03:05:24;;;;;;;1.7;0.9;;;;;;;;;;;;;
2019/05/10 03:07:49;;;;;;;0.9;0.7;;;;;;;;;;;;;
2019/05/10 03:10:14;;;;;;;1.1;0.7;;;;;;;;;;;;;
2019/05/10 03:12:40;;;;;;;1.9;0.8;;;;;;;;;;;;;
2019/05/10 03:15:05;;;;;;;0.7;0.6;;;;;;;;;;;;;
2019/05/10 03:17:32;;;;;;;1.3;0.7;;;;;;;;;;;;;
2019/05/10 03:19:55;;;;;;;0.6;0.6;;;;;;;;;;;;;
2019/05/10 03:22:20;;;;;;;1.5;0.8;;;;;;;;;;;;;
2019/05/10 03:24:45;;;;;;;1.4;0.7;;;;;;;;;;;;;
2019/05/10 03:27:11;;;;;;;1.4;0.7;;;;;;;;;;;;;
2019/05/10 03:29:36;;;;;;;1.5;0.9;;;;;;;;;;;;;
2019/05/10 03:32:01;;;;;;;2.2;1;;;;;;;;;;;;;
2019/05/10 03:34:26;;;;;;;1.9;0.9;;;;;;;;;;;;;
2019/05/10 03:36:51;;;;;;;1.5;0.9;;;;;;;;;;;;;
2019/05/10 03:39:16;;;;;;;2.2;0.8;;;;;;;;;;;;;
2019/05/10 03:41:41;;;;;;;1.9;0.9;;;;;;;;;;;;;
2019/05/10 03:44:06;;;;;;;2.3;1;;;;;;;;;;;;;
2019/05/10 03:46:32;;;;;;;2.3;1.2;;;;;;;;;;;;;
2019/05/10 03:48:57;;;;;;;1.9;1.1;;;;;;;;;;;;;
2019/05/10 03:51:22;;;;;;;3.8;1.3;;;;;;;;;;;;;
2019/05/10 03:53:47;;;;;;;3;1.4;;;;;;;;;;;;;
2019/05/10 03:56:12;;;;;;;2;1.2;;;;;;;;;;;;;
2019/05/10 03:58:37;;;;;;;2.7;1.3;;;;;;;;;;;;;
2019/05/10 04:02:28;;;;;;;3.6;1.8;;;;;;;9.31;81.54199;931.7798;;;;
2019/05/10 04:04:54;;;;;;;3.1;1.3;;;;;;;9.27;81.26074;931.7629;;;;
2019/05/10 04:07:23;;;;;;;2;1.2;;;;;;;9.31;81.37109;931.7758;;;;
2019/05/10 04:09:48;;;;;;;1.2;0.9;;;;;;;9.41;81.19434;931.8293;;;;
2019/05/10 04:12:17;;;;;;;1.2;0.9;;;;;;;9.56;81.12109;931.8396;;;;
2019/05/10 04:14:42;;;;;;;3.9;1.7;;;;;;;9.5;81.45215;931.9387;;;;
2019/05/10 04:17:05;;;;;;;2.6;1.4;;;;;;;9.45;81.20313;931.9012;;;;
2019/05/10 04:19:30;;;;;;;3.2;1.3;;;;;;;9.36;81.52734;931.915;;;;
2019/05/10 04:21:55;;;;;;;1.5;1.1;;;;;;;9.48;81.02637;931.8736;;;;
2019/05/10 04:24:20;;;;;;;2.7;1.3;;;;;;;9.68;80.13086;931.9292;;;;
2019/05/10 04:26:46;;;;;;;2.2;1.5;;;;;;;9.72;80.25098;931.9842;;;;
2019/05/10 04:29:11;;;;;;;3.2;1.8;;;;;;;9.43;81.70117;931.9417;;;;
2019/05/10 04:31:36;;;;;;;2.4;1.2;;;;;;;9.02;83.35352;931.9609;;;;
2019/05/10 04:34:01;;;;;;;5.6;2.3;;;;;;;8.77;85.10156;931.9003;;;;
2019/05/10 04:36:26;;;;;;;2.8;1.9;;;;;;;8.89;84.98828;931.906;;;;
2019/05/10 04:38:52;;;;;;;3.4;1.8;;;;;;;9.09;84.25293;931.9288;;;;
2019/05/10 04:41:18;;;;;;;3.1;2;;;;;;;9.31;83.44336;932.0086;;;;
2019/05/10 04:43:43;;;;;;;4.2;1.9;;;;;;;9.39;82.79688;931.95;;;;
2019/05/10 04:46:08;;;;;;;3.3;2;;;;;;;9.66;82.11035;932.0754;;;;
2019/05/10 04:48:33;;;;;;;3.6;1.4;;;;;;;9.8;80.57227;932.0701;;;;
2019/05/10 04:50:58;;;;;;;2.4;1.2;;;;;;;9.83;80.76172;932.0969;;;;
2019/05/10 04:53:23;;;;;;;2.4;1.2;;;;;;;9.99;80.98438;932.1019;;;;
2019/05/10 04:55:49;;;;;;;3.2;1;;;;;;;9.97;80.43555;932.1671;;;;
2019/05/10 04:58:14;;;;;;;1.9;0.9;;;;;;;9.87;81.13477;932.1644;;;;
2019/05/10 05:00:39;;;;;;;2.4;0.9;;;;;;;10.08;80.4668;932.177;;;;
2019/05/10 05:03:05;;;;;;;1.2;1;;;;;;;10.17;79.74023;932.2447;;;;
2019/05/10 05:05:29;;;;;;;1.8;1;;;;;;;10.04;79.99121;932.3217;;;;
2019/05/10 05:07:54;;;;;;;2.1;1;;;;;;;10.01;79.95117;932.3795;;;;
2019/05/10 05:10:19;;;;;;;2.1;1.1;;;;;;;9.94;80.47363;932.408;;;;
2019/05/10 05:12:45;;;;;;;2.4;1.3;;;;;;;9.95;80.79492;932.4064;;;;
2019/05/10 05:15:12;;;;;;;2.3;1.2;;;;;;;10.2;79.63281;932.462;;;;
2019/05/10 05:17:35;;;;;;;3.9;1.9;;;;;;;10.22;78.76953;932.4395;;;;
2019/05/10 05:20:00;;;;;;;4.4;2.4;;;;;;;10.38;78.2627;932.4397;;;;
2019/05/10 05:22:25;;;;;;;6.8;4.5;;;;;;;10.46;78.80078;932.4105;;;;
2019/05/10 05:24:50;;;;;;;7.4;5.2;;;;;;;10.57;78.27344;932.5179;;;;
2019/05/10 05:27:15;;;;;;;4;2.4;;;;;;;10.52;76.91699;932.5316;;;;
2019/05/10 05:29:41;;;;;;;3.3;2.4;;;;;;;10.5;77.75977;932.4781;;;;
2019/05/10 05:32:06;;;;;;;4.6;3;;;;;;;10.58;78.04688;932.5045;;;;
2019/05/10 05:34:31;;;;;;;4.1;2.8;;;;;;;10.73;77.78809;932.5358;;;;
2019/05/10 05:36:56;;;;;;;3.8;2.8;;;;;;;10.84;77.74023;932.5837;;;;
2019/05/10 05:39:21;;;;;;;4.6;2.7;;;;;;;10.67;78.52051;932.5461;;;;
2019/05/10 05:41:46;;;;;;;2.7;2;;;;;;;10.67;78.50879;932.5374;;;;
2019/05/10 05:44:11;;;;;;;4.8;2.7;;;;;;;10.34;79.47656;932.66;;;;
2019/05/10 05:46:37;;;;;;;3.3;1.8;;;;;;;10.38;79.78027;932.6609;;;;
2019/05/10 05:49:02;;;;;;;4.3;1.6;;;;;;;10.68;78.7959;932.7491;;;;
2019/05/10 05:51:27;;;;;;;4.1;2.7;;;;;;;10.83;78.73242;932.7247;;;;
2019/05/10 05:53:52;;;;;;;2.3;1;;;;;;;10.84;78.1748;932.7709;;;;
2019/05/10 05:56:17;;;;;;;2.4;1.3;;;;;;;10.89;78.05664;932.7566;;;;
2019/05/10 05:58:42;;;;;;;3.6;1.2;;;;;;;11.02;77.56738;932.9048;;;;
2019/05/10 06:01:08;;;;;;;2.1;1;;;;;;;10.84;78.11719;932.8602;;;;
2019/05/10 06:03:33;;;;;;;2.9;1;;;;;;;10.78;78.42773;932.9163;;;;
2019/05/10 06:05:58;;;;;;;2.8;1.2;;;;;;;10.95;78.125;932.9333;;;;
2019/05/10 06:08:23;;;;;;;3.1;1.3;;;;;;;11.07;78.44531;932.9797;;;;
2019/05/10 06:10:49;;;;;;;2.4;1.1;;;;;;;11.18;76.1875;932.9603;;;;
2019/05/10 06:13:16;;;;;;;3.3;1.1;;;;;;;11.1;75.46484;933.0195;;;;
2019/05/10 06:15:39;;;;;;;4;1.4;;;;;;;10.74;76.7627;933.0525;;;;
2019/05/10 06:18:06;;;;;;;3.9;1.4;;;;;;;10.74;76.97949;933.0995;;;;
2019/05/10 06:20:31;;;;;;;3.6;1.6;;;;;;;11.01;78.08008;933.1136;;;;
2019/05/10 06:23:01;;;;;;;3;1.5;;;;;;;11.19;76.01953;933.1716;;;;
2019/05/10 06:25:26;;;;;;;2.7;1.6;;;;;;;11.36;77.1582;933.209;;;;
2019/05/10 06:27:52;;;;;;;1.9;1.3;;;;;;;11.33;77.03809;933.2458;;;;
2019/05/10 06:30:17;;;;;;;5.4;1.8;;;;;;;11.42;77.60547;933.3;;;;
2019/05/10 06:32:42;;;;;;;3.2;1.8;;;;;;;11.25;77.57324;933.3096;;;;
2019/05/10 06:35:07;;;;;;;3.2;1.6;;;;;;;11.15;78.25293;933.3158;;;;
2019/05/10 06:37:32;;;;;;;3.1;1.6;;;;;;;11.29;77.4668;933.3478;;;;
2019/05/10 06:40:00;;;;;;;2.1;1.5;;;;;;;11.34;77.69238;933.241;;;;
2019/05/10 06:42:25;;;;;;;3;1.4;;;;;;;11.61;75.88672;933.2933;;;;
2019/05/10 06:44:51;;;;;;;4.1;1.6;;;;;;;11.34;79.30664;933.3254;;;;
2019/05/10 06:47:17;;;;;;;2.5;1.4;;;;;;;11.64;76.93457;933.3325;;;;
2019/05/10 06:49:42;;;;;;;2.3;1.6;;;;;;;11.58;77.10645;933.2701;;;;
2019/05/10 06:52:09;;;;;;;3.7;1.5;;;;;;;11.42;78.51855;933.3391;;;;
2019/05/10 06:54:32;;;;;;;2.4;1.4;;;;;;;11.57;77.99707;933.3524;;;;
2019/05/10 06:56:58;;;;;;;2.5;1.5;;;;;;;11.97;75.17188;933.3567;;;;
2019/05/10 06:59:23;;;;;;;3.6;1.2;;;;;;;12.16;74.16113;933.3921;;;;
2019/05/10 07:01:48;;;;;;;1.6;1;;;;;;;12.2;73.45801;933.4047;;;;
2019/05/10 07:04:13;;;;;;;2.1;1.3;;;;;;;12.19;74.55469;933.3672;;;;
2019/05/10 07:06:40;;;;;;;2;1.1;;;;;;;12.19;73.70703;933.427;;;;
2019/05/10 07:09:06;;;;;;;1.8;0.9;;;;;;;12.24;73.92285;933.4431;;;;
2019/05/10 07:11:30;;;;;;;3.2;1.2;;;;;;;12.34;73.02246;933.445;;;;
2019/05/10 07:13:59;;;;;;;2.8;1.1;;;;;;;12.26;72.95117;933.4966;;;;
2019/05/10 07:16:25;;;;;;;2.1;1.2;;;;;;;12.45;74.08398;933.4926;;;;
2019/05/10 07:18:52;;;;;;;3.8;1.2;;;;;;;12.33;72.08203;933.5648;;;;
2019/05/10 07:21:17;;;;;;;3.1;1.2;;;;;;;12.41;71.71387;933.574;;;;
2019/05/10 07:23:43;;;;;;;2.2;1.3;;;;;;;12.56;70.66113;933.6046;;;;
2019/05/10 07:26:08;;;;;;;1.5;1;;;;;;;12.67;69.1543;933.605;;;;
2019/05/10 07:28:34;;;;;;;1.6;1;;;;;;;12.91;68.0332;933.7059;;;;
2019/05/10 07:30:59;;;;;;;3.4;1.2;;;;;;;13;70.87109;933.6926;;;;
2019/05/10 07:33:24;;;;;;;2.3;1.1;;;;;;;12.7;69.99609;933.7215;;;;
2019/05/10 07:35:49;;;;;;;3.1;1.1;;;;;;;12.7;70.5127;933.8022;;;;
2019/05/10 07:38:14;;;;;;;2.1;0.9;;;;;;;12.83;69.31641;933.848;;;;
2019/05/10 07:40:40;;;;;;;1.6;1;;;;;;;12.79;71.35352;933.8215;;;;
2019/05/10 07:43:05;;;;;;;2.8;1;;;;;;;12.41;73.51758;933.8928;;;;
2019/05/10 07:45:30;;;;;;;2.8;1.3;;;;;;;12.36;74.91895;933.8856;;;;
2019/05/10 07:47:55;;;;;;;2.1;1.3;;;;;;;12.68;71.97656;933.843;;;;
2019/05/10 07:50:20;;;;;;;2;1.3;;;;;;;12.45;72.65039;933.808;;;;
2019/05/10 07:52:49;;;;;;;2.3;1.6;;;;;;;12.59;72.13379;933.8312;;;;
2019/05/10 07:55:14;;;;;;;3.1;1.6;;;;;;;12.59;74.25781;933.8432;;;;
2019/05/10 07:57:39;;;;;;;5.1;1.5;;;;;;;12.15;76.01758;933.8822;;;;
2019/05/10 08:00:04;;;;;;;3;1.5;;;;;;;12.44;75.11621;933.8767;;;;
2019/05/10 08:02:29;;;;;;;3.2;1.3;;;;;;;12.59;73.78711;933.9327;;;;
2019/05/10 08:04:54;;;;;;;4.1;1.2;;;;;;;12.81;73.52539;933.9389;;;;
2019/05/10 08:07:21;;;;;;;4.2;1.3;;;;;;;13.01;71.72168;933.926;;;;
2019/05/10 08:09:45;;;;;;;4.7;1.4;;;;;;;13.04;72.08398;933.9562;;;;
2019/05/10 08:12:10;;;;;;;3.1;1.1;;;;;;;12.99;73.29199;933.9827;;;;
2019/05/10 08:14:35;;;;;;;1.7;1;;;;;;;13.29;69.87207;933.959;;;;
2019/05/10 08:17:00;;;;;;;4.9;1.3;;;;;;;13.31;71.58887;933.9604;;;;
2019/05/10 08:19:26;;;;;;;3.9;1.1;;;;;;;13.43;68.37793;933.9686;;;;
2019/05/10 08:21:51;;;;;;;3.8;1.2;;;;;;;13.5;70.88281;934.008;;;;
2019/05/10 08:24:16;;;;;;;2.5;1.1;;;;;;;13.57;67.92773;933.9833;;;;
2019/05/10 08:26:41;;;;;;;3.4;1.8;;;;;;;13.61;66.80859;934.0126;;;;
2019/05/10 08:29:06;;;;;;;5.1;1.5;;;;;;;13.33;67.94922;933.9794;;;;
2019/05/10 08:31:32;;;;;;;3.1;1.1;;;;;;;13.46;69.47461;934.0291;;;;
2019/05/10 08:34:00;;;;;;;2.5;0.7;;;;;;;13.53;64.96777;934.0005;;;;
2019/05/10 08:36:26;;;;;;;2.8;0.9;;;;;;;13.77;68.13184;933.9945;;;;
2019/05/10 08:38:52;;;;;;;1.6;0.8;;;;;;;13.87;64.30469;934.0427;;;;
2019/05/10 08:41:17;;;;;;;1.9;0.7;;;;;;;13.91;64.16113;934.0165;;;;
2019/05/10 08:43:43;;;;;;;1.7;0.7;;;;;;;13.99;65.37012;933.9861;;;;
2019/05/10 08:46:08;;;;;;;1.6;0.6;;;;;;;14.06;61.25879;934.0002;;;;
2019/05/10 08:48:34;;;;;;;2;0.5;;;;;;;13.98;61.05273;933.9358;;;;
2019/05/10 08:51:01;;;;;;;1.7;1.1;;;;;;;14.03;62.5791;934.0245;;;;
2019/05/10 08:53:24;;;;;;;1.5;0.8;;;;;;;14.25;63.56543;934.0383;;;;
2019/05/10 08:55:49;;;;;;;2.1;1;;;;;;;13.88;63.20117;933.9866;;;;
2019/05/10 08:58:14;;;;;;;2.2;1.1;;;;;;;14.16;62.95508;933.9966;;;;
2019/05/10 09:00:39;;;;;;;3;1.1;;;;;;;14.4;69.07324;934.0117;;;;
2019/05/10 09:03:05;;;;;;;2.2;1;;;;;;;14.8;66.39063;933.9914;;;;
2019/05/10 09:05:30;;;;;;;1.2;0.8;;;;;;;15;63.98633;933.9641;;;;
2019/05/10 09:07:55;;;;;;;5;1.1;;;;;;;15.46;65.98242;934.0333;;;;
2019/05/10 09:10:21;;;;;;;2.6;1.3;;;;;;;15.8;62.2334;934.0256;;;;
2019/05/10 09:12:46;;;;;;;2.2;1.3;;;;;;;16.55;59.56055;933.9517;;;;
2019/05/10 09:15:11;;;;;;;2;1;;;;;;;17.14;56.47559;933.9595;;;;
2019/05/10 09:17:36;;;;;;;2;1.1;;;;;;;17.05;55.87402;933.9277;;;;
2019/05/10 09:20:01;;;;;;;5;1.1;;;;;;;16.72;60.93848;933.9133;;;;
2019/05/10 09:22:26;;;;;;;3.7;0.9;;;;;;;18.06;55.32715;933.9533;;;;
2019/05/10 09:24:51;;;;;;;3;1.1;;;;;;;18.03;53.65137;933.991;;;;
2019/05/10 09:27:17;;;;;;;3.7;1.1;;;;;;;17.02;54.35254;934.0038;;;;
2019/05/10 09:29:42;;;;;;;2;0.9;;;;;;;17.1;52.33398;933.9852;;;;
2019/05/10 09:32:07;;;;;;;2.5;0.8;;;;;;;17.27;50.54297;934.0461;;;;
2019/05/10 09:34:33;;;;;;;3.1;0.9;;;;;;;16.96;53.35938;934.0114;;;;
2019/05/10 09:37:01;;;;;;;2.6;0.8;;;;;;;17.39;53.06348;933.9611;;;;
2019/05/10 09:39:23;;;;;;;2.8;0.8;;;;;;;17.89;53.26367;933.9105;;;;
2019/05/10 09:41:48;;;;;;;1.8;0.7;;;;;;;17.04;54.42285;934.0108;;;;
2019/05/10 09:44:13;;;;;;;2.6;0.8;;;;;;;17.51;53.10156;934.0059;;;;
2019/05/10 09:46:39;;;;;;;0.7;0.6;;;;;;;17.91;48.79492;933.9592;;;;
2019/05/10 09:49:04;;;;;;;1.6;0.7;;;;;;;17.69;48.9209;933.9412;;;;
2019/05/10 09:51:29;;;;;;;1.4;0.7;;;;;;;16.77;51.4248;934.0223;;;;
2019/05/10 09:53:54;;;;;;;0.7;0.5;;;;;;;17;49.16895;933.9847;;;;
2019/05/10 09:56:19;;;;;;;1.2;0.6;;;;;;;17.29;50.79004;933.957;;;;
2019/05/10 09:58:44;;;;;;;2.6;0.6;;;;;;;17.56;51.36719;933.9307;;;;
2019/05/10 10:01:10;;;;;;;1.7;0.7;;;;;;;17.62;52.38281;933.9796;;;;
2019/05/10 10:03:35;;;;;;;2;0.6;;;;;;;17.71;49.49121;933.96;;;;
2019/05/10 10:06:00;;;;;;;1.5;0.6;;;;;;;18.05;46.50977;933.9155;;;;
2019/05/10 10:08:25;;;;;;;1.2;0.7;;;;;;;18.25;47.65918;933.9194;;;;
2019/05/10 10:10:50;;;;;;;2.7;0.7;;;;;;;18.44;46.93457;933.938;;;;
2019/05/10 10:13:15;;;;;;;2.9;0.7;;;;;;;18.31;47.57227;933.8943;;;;
2019/05/10 10:15:41;;;;;;;2.6;0.7;;;;;;;17.78;48.60645;933.8212;;;;
2019/05/10 10:18:06;;;;;;;2.9;0.7;;;;;;;18.53;47.6543;933.8999;;;;
2019/05/10 10:20:33;;;;;;;3.8;0.7;;;;;;;19.06;48.03711;933.9026;;;;
2019/05/10 10:22:57;;;;;;;2.6;0.7;;;;;;;18.66;46.98242;933.9;;;;
2019/05/10 10:25:22;;;;;;;1.3;0.7;;;;;;;17.54;48.52148;933.8395;;;;
2019/05/10 10:27:49;;;;;;;7.6;0.9;;;;;;;17.41;48.05566;933.8383;;;;
2019/05/10 10:30:14;;;;;;;3.4;0.6;;;;;;;17.66;48.33789;933.7645;;;;
2019/05/10 10:32:41;;;;;;;0.7;0.7;;;;;;;17.85;45.66504;933.7787;;;;
2019/05/10 10:35:06;;;;;;;2.2;0.9;;;;;;;17.74;46.72168;933.8005;;;;
2019/05/10 10:37:31;;;;;;;1.6;0.5;;;;;;;17;46.3877;933.8173;;;;
2019/05/10 10:39:56;;;;;;;2.2;0.4;;;;;;;16.96;49.30371;933.7539;;;;
2019/05/10 10:42:22;;;;;;;2;0.5;;;;;;;18.47;47.44922;933.7145;;;;
2019/05/10 10:44:50;;;;;;;1.4;0.4;;;;;;;19.49;43.80762;933.6976;;;;
2019/05/10 10:47:15;;;;;;;5.5;0.8;;;;;;;19.36;44.13281;933.6764;;;;
2019/05/10 10:49:40;;;;;;;1.8;0.6;;;;;;;19.4;41.57324;933.6531;;;;
2019/05/10 10:52:05;;;;;;;0.5;0.3;;;;;;;18.66;43.58496;933.6459;;;;
2019/05/10 10:54:30;;;;;;;1.8;0.4;;;;;;;18.49;44.16113;933.6124;;;;
2019/05/10 10:56:55;;;;;;;1.4;0.5;;;;;;;20.38;41.98145;933.587;;;;
2019/05/10 10:59:22;;;;;;;0.7;0.4;;;;;;;21.16;36.97754;933.5158;;;;
2019/05/10 11:01:48;;;;;;;6.4;1;;;;;;;22.92;37.80566;933.5168;;;;
2019/05/10 11:04:13;;;;;;;0.7;0.2;;;;;;;23.79;34.00781;933.5105;;;;
2019/05/10 11:06:38;;;;;;;1.3;0.4;;;;;;;26.45;30.12695;933.4816;;;;
2019/05/10 11:09:06;;;;;;;0.3;0.3;;;;;;;26.32;29.31348;933.4254;;;;
2019/05/10 11:11:29;;;;;;;2.4;0.3;;;;;;;25.03;30.51465;933.4725;;;;
2019/05/10 11:13:54;;;;;;;0.9;0.3;;;;;;;23.96;33.62109;933.4183;;;;
2019/05/10 11:16:19;;;;;;;1.6;0.3;;;;;;;22.24;33.62012;933.3934;;;;
2019/05/10 11:18:47;;;;;;;0.8;0.3;;;;;;;21.24;35.98926;933.4531;;;;
2019/05/10 11:21:11;;;;;;;0.7;0.3;;;;;;;21.9;34.36816;933.4127;;;;
2019/05/10 11:23:37;;;;;;;1.7;0.4;;;;;;;23.43;33.98047;933.4744;;;;
2019/05/10 11:26:02;;;;;;;1.2;0.4;;;;;;;23.18;35.30078;933.4736;;;;
2019/05/10 11:28:29;;;;;;;1.7;0.5;;;;;;;22.41;37.93848;933.48;;;;
2019/05/10 11:30:55;;;;;;;1.2;0.4;;;;;;;24.05;34.18066;933.4966;;;;
2019/05/10 11:33:21;;;;;;;0.6;0.2;;;;;;;23.76;32.87598;933.3851;;;;
2019/05/10 11:35:46;;;;;;;1.4;0.3;;;;;;;24.19;33.26074;933.3787;;;;
2019/05/10 11:38:14;;;;;;;2;0.4;;;;;;;24.3;33.21094;933.4394;;;;
2019/05/10 11:40:36;;;;;;;0.9;0.3;;;;;;;24.19;31.21191;933.4087;;;;
2019/05/10 11:43:01;;;;;;;1.8;0.4;;;;;;;22.57;35.05371;933.3614;;;;
2019/05/10 11:45:26;;;;;;;1.3;0.3;;;;;;;22.58;36.3916;933.3811;;;;
2019/05/10 11:47:56;;;;;;;1.7;0.4;;;;;;;22.42;33.99805;933.3141;;;;
2019/05/10 11:50:22;;;;;;;0.8;0.3;;;;;;;22.28;33.97461;933.3098;;;;
2019/05/10 11:52:48;;;;;;;2.8;0.5;;;;;;;22.3;37.62402;933.3585;;;;
2019/05/10 11:55:12;;;;;;;1;0.3;;;;;;;21.96;36.17676;933.3269;;;;
2019/05/10 11:57:37;;;;;;;0.7;0.2;;;;;;;22.18;36.39453;933.3803;;;;
2019/05/10 12:00:02;;;;;;;3.1;0.3;;;;;;;21.73;35.81836;933.3954;;;;
2019/05/10 12:02:30;;;;;;;0.8;0.3;;;;;;;20.96;38.11816;933.4197;;;;
2019/05/10 12:04:52;;;;;;;0.5;0.3;;;;;;;21.24;37.44043;933.3577;;;;
2019/05/10 12:07:18;;;;;;;1.2;0.4;;;;;;;20.66;37.7998;933.4065;;;;
2019/05/10 12:09:43;;;;;;;2.4;0.4;;;;;;;21.13;37.41895;933.3699;;;;
2019/05/10 12:12:09;;;;;;;2.1;0.5;;;;;;;20.28;38.64453;933.42;;;;
2019/05/10 12:14:34;;;;;;;0.9;0.4;;;;;;;20.71;39.25293;933.4168;;;;
2019/05/10 12:16:59;;;;;;;1.1;0.5;;;;;;;21.12;36.34277;933.4177;;;;
2019/05/10 12:19:24;;;;;;;3;0.4;;;;;;;21.39;36.41113;933.3703;;;;
2019/05/10 12:21:49;;;;;;;0.6;0.3;;;;;;;21.58;35.40918;933.3686;;;;
2019/05/10 12:24:15;;;;;;;1.2;0.3;;;;;;;20.88;37.14063;933.371;;;;
2019/05/10 12:26:40;;;;;;;1.4;0.3;;;;;;;21.46;36.49902;933.3865;;;;
2019/05/10 12:29:05;;;;;;;1.1;0.2;;;;;;;21.22;36.29297;933.3686;;;;
2019/05/10 12:31:31;;;;;;;0.4;0.3;;;;;;;21.54;33.70801;933.3742;;;;
2019/05/10 12:33:56;;;;;;;0.3;0.2;;;;;;;21.57;36.71875;933.3528;;;;
2019/05/10 12:36:21;;;;;;;0.7;0.3;;;;;;;21.62;37.05078;933.3552;;;;
2019/05/10 12:38:47;;;;;;;0.8;0.3;;;;;;;21.76;34.81348;933.369;;;;
2019/05/10 12:41:19;;;;;;;0.6;0.2;;;;;;;21.83;34.72559;933.3331;;;;
2019/05/10 12:43:43;;;;;;;1.8;0.2;;;;;;;22.5;34.76563;933.3339;;;;
2019/05/10 12:46:08;;;;;;;0.8;0.3;;;;;;;23.52;32.82324;933.3094;;;;
2019/05/10 12:48:33;;;;;;;0.6;0.3;;;;;;;23.38;32.78906;933.3823;;;;
2019/05/10 12:50:58;;;;;;;1;0.3;;;;;;;21.89;35.14063;933.3501;;;;
2019/05/10 12:53:24;;;;;;;1.4;0.4;;;;;;;21.76;36.92188;933.3521;;;;
2019/05/10 12:55:49;;;;;;;0.2;0.1;;;;;;;21.52;36.5625;933.3128;;;;
2019/05/10 12:58:15;;;;;;;0.6;0.3;;;;;;;20.97;37.80371;933.4045;;;;
2019/05/10 13:00:40;;;;;;;0.8;0.2;;;;;;;20.58;35.64355;933.3872;;;;
2019/05/10 13:03:05;;;;;;;0.4;0.3;;;;;;;20.08;37.31934;933.3713;;;;
2019/05/10 13:05:30;;;;;;;1;0.2;;;;;;;19.92;39.96582;933.3586;;;;
2019/05/10 13:07:55;;;;;;;0.3;0.2;;;;;;;19.18;43.41504;933.3912;;;;
2019/05/10 13:10:20;;;;;;;0.3;0.2;;;;;;;19.63;38.81934;933.3471;;;;
2019/05/10 13:12:46;;;;;;;0.9;0.4;;;;;;;20.23;39.17676;933.4056;;;;
2019/05/10 13:15:11;;;;;;;0.6;0.2;;;;;;;21.03;36.1123;933.3453;;;;
2019/05/10 13:17:36;;;;;;;1.7;0.4;;;;;;;21.48;34.69824;933.3443;;;;
2019/05/10 13:20:03;;;;;;;0.7;0.3;;;;;;;21.54;35.08887;933.3235;;;;
2019/05/10 13:22:28;;;;;;;0.9;0.3;;;;;;;20.68;38.02344;933.3435;;;;
2019/05/10 13:24:54;;;;;;;0.8;0.3;;;;;;;20.69;38.35254;933.3762;;;;
2019/05/10 13:27:19;;;;;;;0.6;0.3;;;;;;;21.32;36.18359;933.2988;;;;
2019/05/10 13:29:44;;;;;;;1.4;0.4;;;;;;;21.9;34.69629;933.283;;;;
2019/05/10 13:32:09;;;;;;;0.7;0.3;;;;;;;21.71;34.49414;933.2759;;;;
2019/05/10 13:34:34;;;;;;;0.6;0.3;;;;;;;21.65;35.0625;933.3289;;;;
2019/05/10 13:37:01;;;;;;;1.4;0.3;;;;;;;21.66;34.74805;933.3357;;;;
2019/05/10 13:39:26;;;;;;;1.1;0.2;;;;;;;21.63;35.5293;933.3013;;;;
2019/05/10 13:41:52;;;;;;;0.4;0.3;;;;;;;21.88;36.32227;933.3083;;;;
2019/05/10 13:44:19;;;;;;;2;0.3;;;;;;;20.96;36.30566;933.2773;;;;
2019/05/10 13:46:42;;;;;;;0.5;0.3;;;;;;;20.91;37.14453;933.2748;;;;
2019/05/10 13:49:08;;;;;;;0.5;0.2;;;;;;;21.17;36.88477;933.2375;;;;
2019/05/10 13:51:33;;;;;;;1.1;0.4;;;;;;;21.22;37.77734;933.2438;;;;
2019/05/10 13:53:58;;;;;;;0.5;0.3;;;;;;;20.25;40.67188;933.2701;;;;
2019/05/10 13:56:24;;;;;;;0.9;0.4;;;;;;;19.95;40.42285;933.3026;;;;
2019/05/10 13:58:49;;;;;;;3.1;0.6;;;;;;;20.11;42.9707;933.2673;;;;
2019/05/10 14:01:16;;;;;;;1.2;0.4;;;;;;;20.33;40.25977;933.3061;;;;
2019/05/10 14:03:41;;;;;;;1.4;0.5;;;;;;;20.24;41.76855;933.2751;;;;
2019/05/10 14:06:06;;;;;;;1.5;0.5;;;;;;;20.13;39.56445;933.2601;;;;
2019/05/10 14:08:31;;;;;;;2.8;0.5;;;;;;;19.71;41.8457;933.1297;;;;
2019/05/10 14:10:58;;;;;;;2;0.5;;;;;;;19.38;42.95801;933.217;;;;
2019/05/10 14:13:21;;;;;;;0.5;0.3;;;;;;;19.56;45.09668;933.253;;;;
2019/05/10 14:15:46;;;;;;;0.6;0.3;;;;;;;19.59;40.58887;933.2269;;;;
2019/05/10 14:18:12;;;;;;;1.2;0.3;;;;;;;19.84;40.78613;933.2619;;;;
2019/05/10 14:20:37;;;;;;;1;0.3;;;;;;;19.69;39.75781;933.257;;;;
2019/05/10 14:23:02;;;;;;;0.8;0.3;;;;;;;18.81;43.01855;933.3116;;;;
2019/05/10 14:25:28;;;;;;;0.9;0.3;;;;;;;19.07;41.19238;933.2857;;;;
2019/05/10 14:27:53;;;;;;;1;0.3;;;;;;;19.33;40.79688;933.3407;;;;
2019/05/10 14:30:20;;;;;;;0.9;0.4;;;;;;;19.21;41.49707;933.3613;;;;
2019/05/10 14:32:43;;;;;;;2;0.4;;;;;;;19.45;41.14648;933.3461;;;;
2019/05/10 14:35:08;;;;;;;0.7;0.4;;;;;;;19.71;42.00977;933.3533;;;;
2019/05/10 14:37:33;;;;;;;1;0.4;;;;;;;19.65;41.98145;933.34;;;;
2019/05/10 14:39:58;;;;;;;0.5;0.3;;;;;;;19.98;41.58105;933.3759;;;;
2019/05/10 14:42:23;;;;;;;2.4;0.4;;;;;;;20;41.47754;933.4125;;;;
2019/05/10 14:44:48;;;;;;;0.5;0.3;;;;;;;19.93;40.14063;933.4699;;;;
2019/05/10 14:47:13;;;;;;;2.6;0.5;;;;;;;19.78;40.67578;933.4511;;;;
2019/05/10 14:49:38;;;;;;;1.7;0.4;;;;;;;19.85;41.04395;933.5661;;;;
2019/05/10 14:52:03;;;;;;;0.9;0.5;;;;;;;19.77;41.17578;933.5308;;;;
2019/05/10 14:54:29;;;;;;;0.8;0.3;;;;;;;19.54;42.09961;933.5444;;;;
2019/05/10 14:56:54;;;;;;;1.7;0.5;;;;;;;19.17;43.19336;933.5513;;;;
2019/05/10 14:59:19;;;;;;;1.7;0.5;;;;;;;18.95;44.54395;933.5344;;;;
2019/05/10 15:01:44;;;;;;;0.7;0.2;;;;;;;19.08;41.97363;933.516;;;;
2019/05/10 15:04:12;;;;;;;1;0.4;;;;;;;19.14;42.27051;933.5425;;;;
2019/05/10 15:06:37;;;;;;;1.9;0.6;;;;;;;19.36;42.06934;933.5651;;;;
2019/05/10 15:09:05;;;;;;;1;0.5;;;;;;;19.15;42.12012;933.6358;;;;
2019/05/10 15:11:27;;;;;;;1.9;0.7;;;;;;;19.34;42.75586;933.6577;;;;
2019/05/10 15:13:52;;;;;;;1.7;0.5;;;;;;;18.99;44.1416;933.5759;;;;
2019/05/10 15:16:17;;;;;;;2.2;0.4;;;;;;;19.14;41.90918;933.6458;;;;
2019/05/10 15:18:42;;;;;;;1.6;0.5;;;;;;;18.82;43.91602;933.6375;;;;
2019/05/10 15:21:08;;;;;;;1.2;0.6;;;;;;;18.93;45.46191;933.6577;;;;
2019/05/10 15:23:36;;;;;;;1.1;0.8;;;;;;;18.83;43.87012;933.6453;;;;
2019/05/10 15:25:58;;;;;;;1;0.9;;;;;;;18.9;43.86426;933.6749;;;;
2019/05/10 15:28:24;;;;;;;1.3;0.5;;;;;;;18.97;43.27832;933.6436;;;;
2019/05/10 15:30:49;;;;;;;0.9;0.6;;;;;;;19.15;43.5752;933.6239;;;;
2019/05/10 15:33:14;;;;;;;2.7;1.1;;;;;;;19.39;43.11133;933.6761;;;;
2019/05/10 15:35:39;;;;;;;8;6.4;;;;;;;19.44;44.29102;933.541;;;;
2019/05/10 15:38:04;;;;;;;9.1;7.1;;;;;;;19.5;42.68945;933.6011;;;;
2019/05/10 15:40:29;;;;;;;3.4;2.7;;;;;;;19.15;43.36621;933.6139;;;;